createdAt,value
2023-04-10T00:02:04.456Z,102258.81
2023-04-10T00:04:32.466Z,102262.31
2023-04-10T00:07:00.483Z,102261.41
2023-04-10T00:09:29.617Z,102268.47
2023-04-10T00:11:57.567Z,102275.53
2023-04-10T00:14:26.896Z,102275.50
2023-04-10T00:16:55.013Z,102291.34
2023-04-10T00:19:23.124Z,102294.00
2023-04-10T00:21:51.171Z,102280.78
2023-04-10T00:24:19.170Z,102278.97
2023-04-10T00:26:46.938Z,102241.94
2023-04-10T00:29:14.907Z,102234.00
2023-04-10T00:31:44.241Z,102226.91
2023-04-10T00:34:12.119Z,102248.06
2023-04-10T00:36:40.017Z,102248.06
2023-04-10T00:39:08.695Z,102259.47
2023-04-10T00:41:36.577Z,102270.00
2023-04-10T00:44:04.315Z,102283.19
2023-04-10T00:46:32.823Z,102270.81
2023-04-10T00:49:02.421Z,102262.00
2023-04-10T00:51:31.394Z,102266.38
2023-04-10T00:54:02.038Z,102251.38
2023-04-10T00:56:32.355Z,102257.50
2023-04-10T00:59:00.277Z,102285.66
2023-04-10T01:01:28.042Z,102309.44
2023-04-10T01:03:56.724Z,102305.00
2023-04-10T01:06:36.825Z,102285.59
2023-04-10T01:09:11.575Z,102262.63
2023-04-10T01:11:52.491Z,102262.63
2023-04-10T01:14:28.982Z,102325.09
2023-04-10T01:17:02.684Z,102319.81
2023-04-10T01:19:55.411Z,102309.19
2023-04-10T01:22:27.573Z,102313.59
2023-04-10T01:25:04.151Z,102301.25
2023-04-10T01:27:45.303Z,102291.53
2023-04-10T01:30:23.082Z,102287.13
2023-04-10T01:32:57.111Z,102283.63
2023-04-10T01:35:26.919Z,102250.13
2023-04-10T01:37:54.983Z,102228.13
2023-04-10T01:40:24.211Z,102174.41
2023-04-10T01:42:56.510Z,102157.63
2023-04-10T01:45:29.126Z,102170.75
2023-04-10T01:47:57.647Z,102201.56
2023-04-10T01:50:28.200Z,102201.53
2023-04-10T01:52:57.306Z,102214.75
2023-04-10T01:55:28.151Z,102235.00
2023-04-10T01:57:56.519Z,102315.16
2023-04-10T02:00:25.875Z,102299.25
2023-04-10T02:02:53.819Z,102264.88
2023-04-10T02:05:22.161Z,102227.03
2023-04-10T02:07:58.695Z,102190.88
2023-04-10T02:10:31.763Z,102189.09
2023-04-10T02:13:02.633Z,102145.06
2023-04-10T02:15:33.783Z,102109.81
2023-04-10T02:18:04.821Z,102138.84
2023-04-10T02:20:33.144Z,102107.09
2023-04-10T02:23:04.092Z,102076.25
2023-04-10T02:25:32.907Z,102055.94
2023-04-10T02:28:05.108Z,102066.38
2023-04-10T02:30:34.587Z,102078.56
2023-04-10T02:33:02.725Z,102177.00
2023-04-10T02:35:30.731Z,102219.13
2023-04-10T02:37:58.558Z,102262.13
2023-04-10T02:40:26.537Z,102301.69
2023-04-10T02:42:54.291Z,102368.56
2023-04-10T02:45:21.975Z,102367.59
2023-04-10T02:47:51.118Z,102325.25
2023-04-10T02:50:18.935Z,102371.78
2023-04-10T02:52:46.845Z,102424.63
2023-04-10T02:55:14.653Z,102429.00
2023-04-10T02:57:43.069Z,102419.25
2023-04-10T03:00:12.063Z,102421.84
2023-04-10T03:02:39.904Z,102438.59
2023-04-10T03:05:10.134Z,102435.91
2023-04-10T03:07:37.989Z,102420.06
2023-04-10T03:10:06.253Z,102422.69
2023-04-10T03:12:34.264Z,102424.44
2023-04-10T03:15:02.191Z,102444.72
2023-04-10T03:17:29.944Z,102430.66
2023-04-10T03:19:57.988Z,102430.66
2023-04-10T03:22:27.584Z,102403.34
2023-04-10T03:24:55.559Z,102336.44
2023-04-10T03:27:23.389Z,102310.91
2023-04-10T03:29:51.114Z,102324.00
2023-04-10T03:32:18.838Z,102299.31
2023-04-10T03:34:47.051Z,102289.59
2023-04-10T03:37:14.760Z,102308.91
2023-04-10T03:39:44.011Z,102318.50
2023-04-10T03:42:12.404Z,102327.28
2023-04-10T03:44:40.193Z,102275.31
2023-04-10T03:47:08.189Z,102295.44
2023-04-10T03:49:36.052Z,102320.00
2023-04-10T03:52:03.852Z,102341.09
2023-04-10T03:54:31.643Z,102346.31
2023-04-10T03:57:01.475Z,102348.91
2023-04-10T03:59:38.223Z,102349.72
2023-04-10T04:02:08.300Z,102332.06
2023-04-10T04:04:36.691Z,102361.00
2023-04-10T04:07:04.659Z,102417.31
2023-04-10T04:09:32.461Z,102413.72
2023-04-10T04:12:02.293Z,102426.94
2023-04-10T04:14:30.061Z,102428.75
2023-04-10T04:16:58.101Z,102449.88
2023-04-10T04:19:29.381Z,102484.25
2023-04-10T04:21:57.812Z,102538.06
2023-04-10T04:24:25.758Z,102519.63
2023-04-10T04:26:53.587Z,102521.44
2023-04-10T04:29:22.999Z,102526.84
2023-04-10T04:31:52.174Z,102527.03
2023-04-10T04:34:19.980Z,102482.22
2023-04-10T04:36:47.871Z,102440.97
2023-04-10T04:39:15.940Z,102419.03
2023-04-10T04:41:44.397Z,102419.19
2023-04-10T04:44:12.140Z,102381.56
2023-04-10T04:46:43.935Z,102419.59
2023-04-10T04:49:12.373Z,102414.53
2023-04-10T04:51:40.218Z,102380.44
2023-04-10T04:54:08.041Z,102370.06
2023-04-10T04:56:35.899Z,102324.47
2023-04-10T04:59:03.918Z,102314.97
2023-04-10T05:01:34.482Z,102340.81
2023-04-10T05:04:03.975Z,102274.03
2023-04-10T05:06:32.833Z,102238.13
2023-04-10T05:09:00.777Z,102271.75
2023-04-10T05:11:28.711Z,102259.59
2023-04-10T05:13:56.567Z,102235.00
2023-04-10T05:16:24.669Z,102208.63
2023-04-10T05:18:52.995Z,102196.28
2023-04-10T05:21:22.424Z,102195.34
2023-04-10T05:23:50.563Z,102160.81
2023-04-10T05:26:18.390Z,102158.84
2023-04-10T05:28:46.495Z,102087.19
2023-04-10T05:31:14.279Z,102045.47
2023-04-10T05:33:42.147Z,102156.44
2023-04-10T05:36:10.642Z,102092.19
2023-04-10T05:38:39.842Z,101949.31
2023-04-10T05:41:07.760Z,101919.47
2023-04-10T05:43:35.624Z,101834.09
2023-04-10T05:46:03.603Z,101745.19
2023-04-10T05:48:31.614Z,101752.19
2023-04-10T05:50:59.536Z,101648.59
2023-04-10T05:53:31.228Z,101561.06
2023-04-10T05:56:01.970Z,101643.75
2023-04-10T05:58:30.289Z,101515.94
2023-04-10T06:00:59.283Z,101534.97
2023-04-10T06:03:30.575Z,101603.31
2023-04-10T06:05:58.783Z,101709.38
2023-04-10T06:08:26.624Z,101738.28
2023-04-10T06:10:54.461Z,101823.47
2023-04-10T06:13:24.260Z,101895.34
2023-04-10T06:15:52.346Z,101994.03
2023-04-10T06:18:20.375Z,102023.66
2023-04-10T06:20:48.161Z,101866.44
2023-04-10T06:23:16.066Z,101814.50
2023-04-10T06:25:44.617Z,101772.47
2023-04-10T06:28:12.560Z,101725.38
2023-04-10T06:30:41.695Z,101877.91
2023-04-10T06:33:09.699Z,101637.75
2023-04-10T06:35:37.637Z,101567.97
2023-04-10T06:38:05.828Z,101618.97
2023-04-10T06:40:34.202Z,101650.09
2023-04-10T06:43:02.045Z,101596.44
2023-04-10T06:45:29.782Z,101536.97
2023-04-10T06:47:59.032Z,101740.31
2023-04-10T06:50:26.903Z,101785.50
2023-04-10T06:52:56.129Z,101859.81
2023-04-10T06:55:24.365Z,101657.19
2023-04-10T06:57:52.318Z,101967.97
2023-04-10T07:00:20.784Z,101802.09
2023-04-10T07:02:48.583Z,101720.00
2023-04-10T07:05:18.245Z,101734.09
2023-04-10T07:07:47.480Z,101644.00
2023-04-10T07:10:15.760Z,101562.94
2023-04-10T07:12:44.036Z,101672.72
2023-04-10T07:15:12.707Z,101594.34
2023-04-10T07:17:40.747Z,101398.91
2023-04-10T07:20:09.560Z,101607.97
2023-04-10T07:22:38.835Z,101633.72
2023-04-10T07:25:07.791Z,101600.22
2023-04-10T07:27:35.829Z,101522.19
2023-04-10T07:30:03.916Z,101586.41
2023-04-10T07:32:32.722Z,101616.44
2023-04-10T07:35:00.586Z,101379.38
2023-04-10T07:37:28.679Z,101720.78
2023-04-10T07:39:57.973Z,101253.00
2023-04-10T07:42:26.658Z,101504.06
2023-04-10T07:44:57.773Z,101213.88
2023-04-10T07:47:25.927Z,101376.22
2023-04-10T07:49:54.268Z,101283.41
2023-04-10T07:52:25.662Z,101212.22
2023-04-10T07:55:19.173Z,101394.44
2023-04-10T07:57:54.277Z,101343.75
2023-04-10T08:00:22.529Z,101284.22
2023-04-10T08:02:51.024Z,101365.69
2023-04-10T08:05:19.436Z,101287.56
2023-04-10T08:07:47.550Z,101339.25
2023-04-10T08:10:15.794Z,101234.38
2023-04-10T08:12:45.127Z,101205.38
2023-04-10T08:15:13.007Z,101265.38
2023-04-10T08:17:40.980Z,101123.44
2023-04-10T08:20:10.671Z,101373.19
2023-04-10T08:22:39.006Z,101219.84
2023-04-10T08:25:07.368Z,101163.53
2023-04-10T08:27:35.274Z,101021.09
2023-04-10T08:30:04.932Z,101155.16
2023-04-10T08:32:32.869Z,100924.88
2023-04-10T08:35:00.761Z,100914.38
2023-04-10T08:37:28.768Z,100857.13
2023-04-10T08:39:56.668Z,101048.59
2023-04-10T08:42:25.497Z,100963.22
2023-04-10T08:44:54.204Z,100885.56
2023-04-10T08:47:28.983Z,100889.19
2023-04-10T08:49:58.889Z,100866.94
2023-04-10T08:52:27.605Z,100865.41
2023-04-10T08:54:58.616Z,100953.13
2023-04-10T08:57:27.314Z,100878.63
2023-04-10T08:59:55.575Z,100699.66
2023-04-10T09:02:25.834Z,100841.13
2023-04-10T09:04:55.896Z,100932.06
2023-04-10T09:07:24.358Z,100914.25
2023-04-10T09:09:52.260Z,100806.31
2023-04-10T09:12:23.167Z,100837.81
2023-04-10T09:14:53.593Z,100794.78
2023-04-10T09:17:23.305Z,100787.69
2023-04-10T09:19:54.924Z,100829.84
2023-04-10T09:22:32.097Z,100852.38
2023-04-10T09:25:00.589Z,100830.25
2023-04-10T09:27:31.412Z,100645.66
2023-04-10T09:29:59.698Z,100686.94
2023-04-10T09:32:39.190Z,100733.88
2023-04-10T09:35:09.654Z,100674.97
2023-04-10T09:37:38.042Z,100656.00
2023-04-10T09:40:07.181Z,100616.97
2023-04-10T09:42:37.177Z,100514.84
2023-04-10T09:45:06.111Z,100471.28
2023-04-10T09:47:34.307Z,100418.28
2023-04-10T09:50:02.339Z,100524.06
2023-04-10T09:52:33.053Z,100460.94
2023-04-10T09:55:03.777Z,100312.00
2023-04-10T09:57:36.855Z,100291.28
2023-04-10T10:00:08.327Z,100411.13
2023-04-10T10:02:40.158Z,100409.94
2023-04-10T10:05:09.107Z,100264.41
2023-04-10T10:07:40.433Z,100250.44
2023-04-10T10:10:09.338Z,100369.00
2023-04-10T10:12:46.971Z,100418.66
2023-04-10T10:15:20.296Z,100256.91
2023-04-10T10:17:59.290Z,100363.97
2023-04-10T10:20:29.280Z,100286.66
2023-04-10T10:22:59.953Z,100296.84
2023-04-10T10:25:28.844Z,100248.16
2023-04-10T10:27:57.283Z,100817.13
2023-04-10T10:30:29.985Z,100671.66
2023-04-10T10:33:00.253Z,100892.94
2023-04-10T10:35:30.137Z,101078.59
2023-04-10T10:38:01.501Z,101072.31
2023-04-10T10:40:33.060Z,101122.09
2023-04-10T10:43:13.367Z,101071.94
2023-04-10T10:45:49.883Z,100933.50
2023-04-10T10:48:17.805Z,100801.72
2023-04-10T10:50:53.959Z,100775.22
2023-04-10T10:53:38.670Z,100937.53
2023-04-10T10:56:34.727Z,100817.19
2023-04-10T10:59:06.517Z,100594.31
2023-04-10T11:01:34.616Z,100648.59
2023-04-10T11:04:23.839Z,100442.56
2023-04-10T11:06:53.431Z,100756.91
2023-04-10T11:09:53.700Z,100753.09
2023-04-10T11:12:24.642Z,100777.03
2023-04-10T11:14:59.953Z,100485.44
2023-04-10T11:17:54.403Z,100091.78
2023-04-10T11:20:27.226Z,100000.41
2023-04-10T11:23:12.320Z,100014.19
2023-04-10T11:25:51.377Z,100343.44
2023-04-10T11:28:42.078Z,100218.09
2023-04-10T11:31:19.452Z,100090.84
2023-04-10T11:33:48.116Z,100035.00
2023-04-10T11:36:18.039Z,100205.53
2023-04-10T11:38:56.690Z,100208.84
2023-04-10T11:41:30.542Z,100057.94
2023-04-10T11:44:00.657Z,100110.34
2023-04-10T11:46:29.315Z,100141.66
2023-04-10T11:48:59.556Z,100158.41
2023-04-10T11:51:28.300Z,100125.25
2023-04-10T11:54:06.354Z,100210.31
2023-04-10T11:56:34.421Z,100209.47
2023-04-10T11:59:07.515Z,100120.34
2023-04-10T12:01:37.915Z,100211.69
2023-04-10T12:04:15.278Z,100285.84
2023-04-10T12:06:46.128Z,100236.88
2023-04-10T12:09:15.649Z,100271.28
2023-04-10T12:11:51.438Z,100184.25
2023-04-10T12:14:21.607Z,100321.03
2023-04-10T12:16:50.281Z,100300.56
2023-04-10T12:19:19.342Z,100222.22
2023-04-10T12:21:47.576Z,100316.13
2023-04-10T12:24:45.096Z,100266.03
2023-04-10T12:27:20.049Z,100352.59
2023-04-10T12:29:50.737Z,100290.28
2023-04-10T12:32:19.171Z,100349.81
2023-04-10T12:34:51.707Z,100308.53
2023-04-10T12:37:20.034Z,100282.19
2023-04-10T12:39:48.193Z,100356.66
2023-04-10T12:42:17.972Z,100273.63
2023-04-10T12:44:54.652Z,100335.09
2023-04-10T12:47:22.789Z,100306.19
2023-04-10T12:50:07.568Z,100196.63
2023-04-10T12:52:36.005Z,100286.47
2023-04-10T12:55:15.406Z,100377.63
2023-04-10T12:57:44.913Z,100305.34
2023-04-10T13:00:18.448Z,100220.25
2023-04-10T13:02:47.017Z,100237.72
2023-04-10T13:05:15.541Z,100227.31
2023-04-10T13:07:43.327Z,100227.09
2023-04-10T13:10:11.417Z,100231.75
2023-04-10T13:12:40.684Z,100298.63
2023-04-10T13:15:09.015Z,100170.28
2023-04-10T13:17:38.385Z,100256.84
2023-04-10T13:20:07.427Z,100268.97
2023-04-10T13:22:35.249Z,100220.47
2023-04-10T13:25:03.803Z,100260.13
2023-04-10T13:27:32.319Z,100162.50
2023-04-10T13:30:00.556Z,100112.06
2023-04-10T13:32:28.596Z,100148.66
2023-04-10T13:34:57.964Z,100128.22
2023-04-10T13:37:26.718Z,100188.56
2023-04-10T13:39:54.855Z,100185.97
2023-04-10T13:42:22.826Z,100078.38
2023-04-10T13:44:50.701Z,100101.69
2023-04-10T13:47:18.520Z,100125.00
2023-04-10T13:49:46.494Z,100128.91
2023-04-10T13:52:15.674Z,100097.28
2023-04-10T13:54:43.578Z,100111.31
2023-04-10T13:57:11.304Z,100149.28
2023-04-10T13:59:39.327Z,100114.38
2023-04-10T14:02:07.168Z,100140.19
2023-04-10T14:04:34.895Z,100139.00
2023-04-10T14:07:03.029Z,100142.44
2023-04-10T14:09:32.225Z,100112.75
2023-04-10T14:12:01.507Z,100058.19
2023-04-10T14:14:30.262Z,100133.06
2023-04-10T14:16:59.260Z,100113.63
2023-04-10T14:19:27.191Z,100151.06
2023-04-10T14:21:54.950Z,100189.59
2023-04-10T14:24:22.858Z,100146.75
2023-04-10T14:26:53.695Z,100117.50
2023-04-10T14:29:28.511Z,100092.69
2023-04-10T14:32:03.117Z,100088.06
2023-04-10T14:34:30.920Z,100119.41
2023-04-10T14:36:58.785Z,100138.28
2023-04-10T14:39:26.870Z,100130.63
2023-04-10T14:41:56.993Z,100174.59
2023-04-10T14:44:24.834Z,100220.84
2023-04-10T14:46:52.599Z,100189.28
2023-04-10T14:49:20.365Z,100207.25
2023-04-10T14:51:50.083Z,100232.72
2023-04-10T14:54:21.635Z,100176.38
2023-04-10T14:56:50.151Z,100134.88
2023-04-10T14:59:19.479Z,100153.00
2023-04-10T15:01:47.546Z,100149.94
2023-04-10T15:04:15.479Z,100156.81
2023-04-10T15:06:43.266Z,100101.47
2023-04-10T15:09:11.019Z,100081.16
2023-04-10T15:11:38.771Z,100079.81
2023-04-10T15:14:07.413Z,100032.47
2023-04-10T15:16:36.529Z,100066.38
2023-04-10T15:19:04.365Z,100015.19
2023-04-10T15:21:32.421Z,100095.69
2023-04-10T15:24:01.069Z,100053.47
2023-04-10T15:26:28.900Z,100028.47
2023-04-10T15:28:56.799Z,100009.06
2023-04-10T15:31:24.697Z,99980.88
2023-04-10T15:33:54.070Z,100027.97
2023-04-10T15:36:22.332Z,100016.00
2023-04-10T15:38:50.439Z,100026.88
2023-04-10T15:41:18.346Z,100036.31
2023-04-10T15:43:46.548Z,100079.41
2023-04-10T15:46:15.842Z,100046.63
2023-04-10T15:48:45.958Z,100071.59
2023-04-10T15:51:15.394Z,100003.09
2023-04-10T15:53:43.551Z,100003.63
2023-04-10T15:56:11.394Z,100026.63
2023-04-10T15:58:41.610Z,100015.88
2023-04-10T16:01:09.897Z,100036.09
2023-04-10T16:03:37.889Z,100054.09
2023-04-10T16:06:06.436Z,100025.81
2023-04-10T16:08:35.590Z,99989.19
2023-04-10T16:11:03.673Z,99940.97
2023-04-10T16:13:31.411Z,99926.03
2023-04-10T16:15:59.419Z,99918.22
2023-04-10T16:18:27.112Z,99914.94
2023-04-10T16:20:58.585Z,99910.78
2023-04-10T16:23:26.568Z,99916.16
2023-04-10T16:25:55.896Z,99908.13
2023-04-10T16:28:23.627Z,99896.75
2023-04-10T16:30:51.685Z,99889.91
2023-04-10T16:33:19.450Z,99915.38
2023-04-10T16:35:47.790Z,99919.41
2023-04-10T16:38:15.710Z,99972.25
2023-04-10T16:40:43.499Z,99961.72
2023-04-10T16:43:14.934Z,99955.03
2023-04-10T16:45:42.845Z,99931.78
2023-04-10T16:48:10.596Z,99936.69
2023-04-10T16:50:38.375Z,99937.06
2023-04-10T16:53:06.066Z,99983.63
2023-04-10T16:55:33.724Z,99966.28
2023-04-10T16:58:01.603Z,99928.75
2023-04-10T17:00:31.001Z,99932.81
2023-04-10T17:03:00.231Z,99936.13
2023-04-10T17:05:34.297Z,99937.72
2023-04-10T17:08:02.067Z,99947.75
2023-04-10T17:10:29.975Z,99925.13
2023-04-10T17:12:57.852Z,99925.13
2023-04-10T17:15:25.816Z,99918.66
2023-04-10T17:17:55.085Z,99927.72
2023-04-10T17:20:22.883Z,99942.00
2023-04-10T17:22:50.739Z,99948.69
2023-04-10T17:25:18.924Z,99953.56
2023-04-10T17:27:46.715Z,99935.69
2023-04-10T17:30:15.506Z,99945.94
2023-04-10T17:32:43.524Z,99936.66
2023-04-10T17:35:12.759Z,99958.84
2023-04-10T17:37:40.645Z,99974.47
2023-04-10T17:40:09.781Z,99972.09
2023-04-10T17:42:37.530Z,99963.78
2023-04-10T17:45:06.094Z,99977.91
2023-04-10T17:47:33.987Z,99969.47
2023-04-10T17:50:01.803Z,99960.88
2023-04-10T17:52:31.068Z,99985.38
2023-04-10T17:55:01.476Z,99971.78
2023-04-10T17:57:29.378Z,100002.00
2023-04-10T17:59:57.199Z,100000.50
2023-04-10T18:02:24.985Z,100006.44
2023-04-10T18:04:52.747Z,100016.84
2023-04-10T18:07:20.578Z,100036.94
2023-04-10T18:09:49.701Z,100013.44
2023-04-10T18:12:17.529Z,100033.38
2023-04-10T18:14:48.038Z,100033.81
2023-04-10T18:17:15.838Z,100032.53
2023-04-10T18:19:43.553Z,100044.34
2023-04-10T18:22:11.834Z,100051.19
2023-04-10T18:24:39.677Z,100048.69
2023-04-10T18:27:08.812Z,100057.06
2023-04-10T18:29:36.608Z,100062.00
2023-04-10T18:32:04.522Z,100054.38
2023-04-10T18:34:32.257Z,100049.47
2023-04-10T18:37:00.411Z,100056.75
2023-04-10T18:39:28.143Z,100056.94
2023-04-10T18:41:57.329Z,100052.56
2023-04-10T18:44:27.915Z,100045.59
2023-04-10T18:47:03.756Z,100068.53
2023-04-10T18:49:33.021Z,100044.75
2023-04-10T18:52:01.411Z,100051.03
2023-04-10T18:54:30.050Z,100041.09
2023-04-10T18:56:57.821Z,100034.22
2023-04-10T18:59:28.672Z,100043.00
2023-04-10T19:01:56.670Z,100041.84
2023-04-10T19:04:25.601Z,100034.78
2023-04-10T19:06:53.683Z,100042.06
2023-04-10T19:09:21.465Z,100062.50
2023-04-10T19:11:49.169Z,100043.75
2023-04-10T19:14:16.849Z,100028.00
2023-04-10T19:16:46.030Z,100023.41
2023-04-10T19:19:13.697Z,100010.44
2023-04-10T19:21:41.464Z,100021.25
2023-04-10T19:24:09.170Z,100013.22
2023-04-10T19:26:37.823Z,100013.44
2023-04-10T19:29:06.109Z,100010.75
2023-04-10T19:31:34.032Z,100008.28
2023-04-10T19:34:09.175Z,100008.28
2023-04-10T19:36:37.429Z,100023.38
2023-04-10T19:39:06.199Z,100012.66
2023-04-10T19:41:33.891Z,100002.81
2023-04-10T19:44:01.720Z,99978.94
2023-04-10T19:46:30.810Z,99968.13
2023-04-10T19:48:58.847Z,99956.13
2023-04-10T19:51:28.352Z,99924.31
2023-04-10T19:53:57.467Z,99904.38
2023-04-10T19:56:26.946Z,99890.47
2023-04-10T19:58:54.755Z,99872.69
2023-04-10T20:01:24.258Z,99858.97
2023-04-10T20:03:52.386Z,99819.34
2023-04-10T20:06:22.024Z,99795.13
2023-04-10T20:08:51.499Z,99793.41
2023-04-10T20:11:19.294Z,99763.84
2023-04-10T20:13:47.015Z,99750.13
2023-04-10T20:16:14.889Z,99735.75
2023-04-10T20:18:42.674Z,99729.31
2023-04-10T20:21:10.553Z,99686.47
2023-04-10T20:23:38.644Z,99667.59
2023-04-10T20:26:08.603Z,99639.97
2023-04-10T20:28:36.438Z,99627.19
2023-04-10T20:31:04.384Z,99623.03
2023-04-10T20:33:32.202Z,99619.63
2023-04-10T20:36:00.089Z,99621.84
2023-04-10T20:38:27.889Z,99604.81
2023-04-10T20:40:55.708Z,99598.59
2023-04-10T20:43:26.267Z,99580.50
2023-04-10T20:45:53.998Z,99570.75
2023-04-10T20:48:21.766Z,99569.78
2023-04-10T20:50:49.727Z,99550.81
2023-04-10T20:53:17.572Z,99546.03
2023-04-10T20:55:45.387Z,99551.75
2023-04-10T20:58:13.129Z,99549.44
2023-04-10T21:00:42.280Z,99549.44
2023-04-10T21:03:10.214Z,99553.69
2023-04-10T21:05:40.959Z,99547.25
2023-04-10T21:08:08.883Z,99539.84
2023-04-10T21:10:40.107Z,99536.41
2023-04-10T21:13:07.939Z,99512.56
2023-04-10T21:15:35.731Z,99510.94
2023-04-10T21:18:05.045Z,99500.13
2023-04-10T21:20:33.782Z,99510.25
2023-04-10T21:23:01.649Z,99503.63
2023-04-10T21:25:31.663Z,99492.56
2023-04-10T21:27:59.709Z,99489.88
2023-04-10T21:30:27.434Z,99483.78
2023-04-10T21:32:55.716Z,99464.31
2023-04-10T21:35:25.118Z,99464.91
2023-04-10T21:37:57.609Z,99470.25
2023-04-10T21:40:29.995Z,99471.25
2023-04-10T21:42:57.710Z,99460.66
2023-04-10T21:45:25.607Z,99460.75
2023-04-10T21:47:53.520Z,99465.75
2023-04-10T21:50:21.516Z,99452.63
2023-04-10T21:52:50.671Z,99449.31
2023-04-10T21:55:18.649Z,99448.09
2023-04-10T21:57:46.533Z,99457.47
2023-04-10T22:00:16.880Z,99449.44
2023-04-10T22:02:45.809Z,99448.81
2023-04-10T22:05:14.497Z,99450.84
2023-04-10T22:07:42.184Z,99449.41
2023-04-10T22:10:11.618Z,99453.63
2023-04-10T22:12:39.453Z,99459.94
2023-04-10T22:15:07.966Z,99455.34
2023-04-10T22:17:35.805Z,99465.19
2023-04-10T22:20:03.691Z,99445.09
2023-04-10T22:22:31.573Z,99447.06
2023-04-10T22:24:59.517Z,99446.44
2023-04-10T22:27:28.642Z,99455.44
2023-04-10T22:30:03.140Z,99452.97
2023-04-10T22:32:32.402Z,99443.47
2023-04-10T22:35:00.601Z,99457.38
2023-04-10T22:37:28.874Z,99452.69
2023-04-10T22:39:56.771Z,99440.53
2023-04-10T22:42:25.153Z,99444.91
2023-04-10T22:44:54.804Z,99452.09
2023-04-10T22:47:22.696Z,99439.06
2023-04-10T22:49:50.995Z,99441.00
2023-04-10T22:52:18.764Z,99431.16
2023-04-10T22:54:47.195Z,99443.91
2023-04-10T22:57:14.964Z,99439.75
2023-04-10T22:59:45.702Z,99439.88
2023-04-10T23:02:14.859Z,99446.19
2023-04-10T23:04:43.354Z,99451.88
2023-04-10T23:07:11.123Z,99456.03
2023-04-10T23:09:38.823Z,99455.28
2023-04-10T23:12:06.870Z,99449.09
2023-04-10T23:14:35.787Z,99445.53
2023-04-10T23:17:03.686Z,99431.41
2023-04-10T23:19:32.762Z,99427.91
2023-04-10T23:22:00.608Z,99424.59
2023-04-10T23:24:28.408Z,99426.66
2023-04-10T23:26:56.280Z,99432.34
2023-04-10T23:29:24.028Z,99426.38
2023-04-10T23:31:51.921Z,99424.78
2023-04-10T23:34:21.048Z,99426.59
2023-04-10T23:36:50.290Z,99436.75
2023-04-10T23:39:18.034Z,99432.00
2023-04-10T23:41:45.800Z,99421.53
2023-04-10T23:44:13.636Z,99435.84
2023-04-10T23:46:41.327Z,99438.75
2023-04-10T23:49:09.025Z,99432.34
2023-04-10T23:51:36.756Z,99431.69
2023-04-10T23:54:06.403Z,99432.69
2023-04-10T23:56:34.171Z,99442.53
2023-04-10T23:59:01.945Z,99428.75
